createdAt,value
2023-05-24T00:02:30.069Z,3.27
2023-05-24T00:07:31.589Z,2.80
2023-05-24T00:12:32.978Z,2.97
2023-05-24T00:17:40.404Z,2.97
2023-05-24T00:22:41.858Z,2.60
2023-05-24T00:27:43.153Z,3.23
2023-05-24T00:32:44.406Z,3.70
2023-05-24T00:37:45.837Z,2.87
2023-05-24T00:42:50.186Z,3.13
2023-05-24T00:47:52.016Z,2.67
2023-05-24T00:52:53.592Z,4.00
2023-05-24T00:57:56.853Z,3.00
2023-05-24T01:03:00.383Z,3.27
2023-05-24T01:08:18.522Z,3.07
2023-05-24T01:13:45.244Z,3.27
2023-05-24T01:18:54.246Z,3.23
2023-05-24T01:24:18.541Z,3.67
2023-05-24T01:29:20.491Z,4.50
2023-05-24T01:34:21.771Z,3.57
2023-05-24T01:39:25.885Z,3.70
2023-05-24T01:44:33.661Z,3.63
2023-05-24T01:49:39.853Z,3.43
2023-05-24T01:54:45.074Z,4.03
2023-05-24T01:59:47.020Z,3.97
2023-05-24T02:04:48.739Z,3.37
2023-05-24T02:09:50.270Z,4.07
2023-05-24T02:14:51.742Z,3.50
2023-05-24T02:19:53.329Z,3.40
2023-05-24T02:24:54.726Z,3.40
2023-05-24T02:29:56.853Z,4.60
2023-05-24T02:35:04.300Z,3.37
2023-05-24T02:40:06.436Z,3.10
2023-05-24T02:45:08.248Z,3.50
2023-05-24T02:50:10.147Z,3.70
2023-05-24T02:55:11.524Z,3.40
2023-05-24T03:00:14.258Z,4.33
2023-05-24T03:05:17.852Z,4.17
2023-05-24T03:10:19.532Z,3.27
2023-05-24T03:15:20.989Z,3.77
2023-05-24T03:20:24.084Z,2.97
2023-05-24T03:25:26.717Z,3.13
2023-05-24T03:30:28.597Z,3.67
2023-05-24T03:35:32.886Z,4.40
2023-05-24T03:40:34.309Z,4.03
2023-05-24T03:45:47.688Z,3.60
2023-05-24T03:50:49.159Z,4.00
2023-05-24T03:55:51.878Z,3.80
2023-05-24T04:00:53.636Z,3.50
2023-05-24T04:05:55.292Z,3.97
2023-05-24T04:10:56.782Z,4.00
2023-05-24T04:15:58.091Z,4.20
2023-05-24T04:20:59.664Z,5.03
2023-05-24T04:26:01.260Z,5.03
2023-05-24T04:31:05.522Z,4.30
2023-05-24T04:36:07.721Z,4.97
2023-05-24T04:41:09.983Z,4.53
2023-05-24T04:46:12.653Z,4.33
2023-05-24T04:51:13.988Z,5.03
2023-05-24T04:56:16.299Z,5.07
2023-05-24T05:01:18.405Z,5.43
2023-05-24T05:06:20.109Z,5.23
2023-05-24T05:11:21.492Z,5.40
2023-05-24T05:16:23.060Z,5.70
2023-05-24T05:21:24.407Z,5.00
2023-05-24T05:26:29.382Z,6.50
2023-05-24T05:31:30.719Z,5.97
2023-05-24T05:36:32.023Z,5.70
2023-05-24T05:41:33.463Z,5.77
2023-05-24T05:46:34.824Z,6.27
2023-05-24T05:51:38.066Z,6.47
2023-05-24T05:56:45.193Z,5.37
2023-05-24T06:01:48.289Z,6.03
2023-05-24T06:06:50.035Z,5.23
2023-05-24T06:11:51.606Z,5.27
2023-05-24T06:16:54.495Z,4.60
2023-05-24T06:21:56.859Z,5.00
2023-05-24T06:26:59.281Z,4.87
2023-05-24T06:32:00.737Z,5.27
2023-05-24T06:37:02.934Z,4.40
2023-05-24T06:42:04.523Z,5.00
2023-05-24T06:47:11.070Z,5.00
2023-05-24T06:52:13.281Z,4.05
2023-05-24T06:57:14.976Z,4.07
2023-05-24T07:02:16.738Z,3.33
2023-05-24T07:07:19.959Z,3.60
2023-05-24T07:12:22.761Z,3.65
2023-05-24T07:17:24.050Z,3.60
2023-05-24T07:22:27.930Z,3.90
2023-05-24T07:27:29.278Z,3.90
2023-05-24T07:32:32.486Z,3.22
2023-05-24T07:37:33.816Z,3.65
2023-05-24T07:42:35.417Z,3.67
2023-05-24T07:47:37.178Z,3.80
2023-05-24T07:52:38.919Z,4.30
2023-05-24T07:57:40.420Z,3.60
2023-05-24T08:02:43.407Z,4.70
2023-05-24T08:07:45.010Z,3.60
2023-05-24T08:12:46.468Z,3.28
2023-05-24T08:17:48.659Z,4.15
2023-05-24T08:22:50.008Z,3.08
2023-05-24T08:27:51.755Z,3.47
2023-05-24T08:32:53.256Z,3.85
2023-05-24T08:37:54.514Z,4.25
2023-05-24T08:42:59.633Z,3.72
2023-05-24T08:48:01.527Z,4.00
2023-05-24T08:53:06.433Z,3.45
2023-05-24T08:58:08.126Z,3.47
2023-05-24T09:03:10.601Z,4.13
2023-05-24T09:08:17.239Z,2.95
2023-05-24T09:13:19.048Z,3.08
2023-05-24T09:18:20.526Z,4.15
2023-05-24T09:23:23.104Z,3.53
2023-05-24T09:28:24.324Z,3.80
2023-05-24T09:33:32.338Z,4.00
2023-05-24T09:38:35.326Z,4.15
2023-05-24T09:43:47.711Z,3.80
2023-05-24T09:49:07.806Z,3.30
2023-05-24T09:54:09.312Z,3.83
2023-05-24T09:59:10.896Z,4.35
2023-05-24T10:04:13.509Z,3.83
2023-05-24T10:09:15.185Z,4.25
2023-05-24T10:14:17.357Z,4.18
2023-05-24T10:19:18.846Z,4.93
2023-05-24T10:24:25.187Z,5.30
2023-05-24T10:29:58.628Z,5.80
2023-05-24T10:35:01.080Z,6.22
2023-05-24T10:40:03.646Z,5.97
2023-05-24T10:45:23.821Z,5.72
2023-05-24T10:50:24.984Z,6.43
2023-05-24T10:55:26.279Z,5.95
2023-05-24T11:05:52.194Z,4.57
2023-05-24T11:11:25.610Z,4.75
2023-05-24T11:16:36.702Z,6.57
2023-05-24T11:21:40.620Z,4.40
2023-05-24T11:26:43.286Z,4.63
2023-05-24T11:32:03.719Z,4.53
2023-05-24T11:37:05.375Z,3.97
2023-05-24T11:42:08.054Z,4.85
2023-05-24T11:47:09.347Z,7.38
2023-05-24T11:52:10.461Z,5.68
2023-05-24T11:57:12.233Z,4.85
2023-05-24T12:02:13.709Z,4.85
2023-05-24T12:07:17.672Z,5.93
2023-05-24T12:12:27.078Z,5.85
2023-05-24T12:17:35.498Z,5.07
2023-05-24T12:22:36.866Z,5.13
2023-05-24T12:27:46.986Z,5.35
2023-05-24T12:32:48.780Z,4.95
2023-05-24T12:37:57.443Z,4.63
2023-05-24T12:42:59.155Z,4.78
2023-05-24T12:48:02.056Z,5.40
2023-05-24T12:53:03.604Z,4.88
2023-05-24T12:58:07.428Z,4.72
2023-05-24T13:03:08.876Z,4.68
2023-05-24T13:08:10.126Z,4.30
2023-05-24T13:13:11.587Z,5.07
2023-05-24T13:18:13.315Z,4.57
2023-05-24T13:23:14.699Z,4.60
2023-05-24T13:28:16.367Z,4.28
2023-05-24T13:33:17.561Z,3.83
2023-05-24T13:38:22.707Z,3.97
2023-05-24T13:43:24.201Z,4.50
2023-05-24T13:48:25.497Z,4.90
2023-05-24T13:53:27.283Z,4.57
2023-05-24T13:58:28.766Z,3.40
2023-05-24T14:03:30.115Z,3.40
2023-05-24T14:08:31.315Z,3.05
2023-05-24T14:14:23.404Z,3.47
2023-05-24T14:18:54.145Z,3.28
2023-05-24T14:23:55.307Z,3.28
2023-05-24T14:28:57.143Z,3.97
2023-05-24T14:33:58.485Z,3.72
2023-05-24T14:38:59.932Z,4.13
2023-05-24T14:44:01.360Z,3.85
2023-05-24T14:49:04.072Z,3.80
2023-05-24T14:54:05.494Z,3.55
2023-05-24T14:59:06.962Z,3.72
2023-05-24T15:04:08.467Z,4.18
2023-05-24T15:09:10.996Z,3.63
2023-05-24T15:14:12.228Z,3.88
2023-05-24T15:19:13.655Z,4.70
2023-05-24T15:24:14.924Z,3.47
2023-05-24T15:29:16.882Z,3.90
2023-05-24T15:34:19.103Z,3.80
2023-05-24T15:39:20.952Z,4.22
2023-05-24T15:44:22.245Z,4.03
2023-05-24T15:49:23.957Z,4.07
2023-05-24T15:54:25.165Z,4.35
2023-05-24T15:59:26.824Z,4.53
2023-05-24T16:04:27.936Z,3.58
2023-05-24T16:09:29.404Z,3.95
2023-05-24T16:14:30.895Z,3.47
2023-05-24T16:19:32.247Z,3.70
2023-05-24T16:24:33.608Z,4.32
2023-05-24T16:29:35.991Z,4.28
2023-05-24T16:34:54.957Z,4.00
2023-05-24T16:39:57.008Z,4.32
2023-05-24T16:44:58.744Z,4.18
2023-05-24T16:50:00.086Z,4.57
2023-05-24T16:55:01.477Z,4.38
2023-05-24T17:00:04.896Z,4.60
2023-05-24T17:05:07.109Z,5.32
2023-05-24T17:10:08.741Z,5.40
2023-05-24T17:15:10.541Z,5.05
2023-05-24T17:20:12.977Z,5.00
2023-05-24T17:25:14.312Z,4.85
2023-05-24T17:30:15.550Z,5.20
2023-05-24T17:35:16.916Z,5.07
2023-05-24T17:40:18.381Z,4.82
2023-05-24T17:45:19.867Z,4.70
2023-05-24T17:50:21.142Z,4.80
2023-05-24T17:55:22.483Z,4.53
2023-05-24T18:00:23.836Z,5.10
2023-05-24T18:05:25.097Z,5.00
2023-05-24T18:10:26.692Z,4.75
2023-05-24T18:15:28.143Z,5.05
2023-05-24T18:20:29.634Z,5.63
2023-05-24T18:25:31.048Z,5.35
2023-05-24T18:30:32.385Z,6.05
2023-05-24T18:35:33.822Z,5.15
2023-05-24T18:40:35.212Z,4.82
2023-05-24T18:45:36.867Z,5.50
2023-05-24T18:50:38.441Z,4.85
2023-05-24T18:55:39.949Z,4.72
2023-05-24T19:00:41.283Z,4.40
2023-05-24T19:05:44.208Z,4.63
2023-05-24T19:10:45.694Z,4.53
2023-05-24T19:15:47.043Z,4.68
2023-05-24T19:20:48.584Z,4.15
2023-05-24T19:25:50.133Z,3.78
2023-05-24T19:30:51.650Z,3.67
2023-05-24T19:35:52.951Z,3.73
2023-05-24T19:40:54.217Z,3.88
2023-05-24T19:45:57.064Z,3.47
2023-05-24T19:50:58.561Z,3.97
2023-05-24T19:56:00.231Z,3.83
2023-05-24T20:01:01.653Z,4.10
2023-05-24T20:06:03.121Z,3.73
2023-05-24T20:11:04.632Z,3.63
2023-05-24T20:16:06.577Z,3.57
2023-05-24T20:21:08.069Z,3.67
2023-05-24T20:26:09.516Z,3.77
2023-05-24T20:31:10.913Z,3.13
2023-05-24T20:36:14.199Z,3.10
2023-05-24T20:41:16.241Z,3.50
2023-05-24T20:46:17.508Z,3.90
2023-05-24T20:51:18.960Z,3.77
2023-05-24T20:56:22.297Z,3.10
2023-05-24T21:01:23.610Z,3.20
2023-05-24T21:06:25.076Z,3.30
2023-05-24T21:11:27.113Z,3.50
2023-05-24T21:16:28.667Z,3.43
2023-05-24T21:21:30.111Z,3.30
2023-05-24T21:26:32.013Z,3.43
2023-05-24T21:31:35.167Z,3.97
2023-05-24T21:36:36.995Z,2.97
2023-05-24T21:41:38.254Z,3.17
2023-05-24T21:46:39.814Z,3.07
2023-05-24T21:51:41.243Z,3.60
2023-05-24T21:56:42.563Z,3.87
2023-05-24T22:01:43.831Z,3.97
2023-05-24T22:06:45.364Z,4.00
2023-05-24T22:11:46.803Z,3.47
2023-05-24T22:16:48.496Z,3.43
2023-05-24T22:21:51.374Z,4.13
2023-05-24T22:26:53.069Z,3.37
2023-05-24T22:31:57.213Z,3.53
2023-05-24T22:36:58.598Z,3.50
2023-05-24T22:42:00.884Z,3.53
2023-05-24T22:47:02.513Z,3.70
2023-05-24T22:52:04.471Z,3.80
2023-05-24T22:57:05.779Z,4.10
2023-05-24T23:02:07.149Z,4.00
2023-05-24T23:07:08.573Z,4.07
2023-05-24T23:12:10.945Z,4.10
2023-05-24T23:17:19.565Z,4.10
2023-05-24T23:22:23.036Z,4.27
2023-05-24T23:27:24.188Z,4.03
2023-05-24T23:32:25.439Z,4.23
2023-05-24T23:37:27.125Z,4.20
2023-05-24T23:42:28.380Z,4.53
2023-05-24T23:47:29.886Z,4.63
2023-05-24T23:52:31.141Z,4.77
2023-05-24T23:57:32.810Z,4.60
